createdAt,value
2022-10-26T00:01:05.056Z,3.03
2022-10-26T00:02:08.254Z,3.58
2022-10-26T00:03:11.278Z,4.28
2022-10-26T00:04:13.205Z,4.03
2022-10-26T00:05:16.176Z,3.50
2022-10-26T00:06:19.712Z,3.45
2022-10-26T00:07:22.620Z,3.42
2022-10-26T00:08:24.521Z,3.45
2022-10-26T00:09:27.641Z,3.35
2022-10-26T00:10:31.646Z,3.20
2022-10-26T00:11:34.878Z,2.78
2022-10-26T00:12:36.807Z,3.78
2022-10-26T00:13:41.912Z,3.20
2022-10-26T00:14:43.808Z,3.35
2022-10-26T00:15:46.750Z,3.33
2022-10-26T00:16:48.671Z,3.20
2022-10-26T00:17:52.265Z,3.60
2022-10-26T00:18:54.808Z,3.67
2022-10-26T00:19:57.888Z,2.90
2022-10-26T00:21:03.365Z,3.33
2022-10-26T00:22:06.275Z,3.30
2022-10-26T00:23:08.408Z,3.72
2022-10-26T00:24:12.495Z,3.22
2022-10-26T00:25:14.488Z,3.58
2022-10-26T00:26:17.395Z,3.60
2022-10-26T00:27:19.409Z,3.25
2022-10-26T00:28:22.334Z,3.17
2022-10-26T00:29:25.642Z,3.00
2022-10-26T00:30:28.634Z,3.33
2022-10-26T00:31:30.928Z,3.13
2022-10-26T00:32:34.910Z,3.13
2022-10-26T00:33:37.075Z,2.95
2022-10-26T00:34:40.128Z,3.20
2022-10-26T00:35:46.002Z,3.45
2022-10-26T00:36:49.286Z,3.15
2022-10-26T00:37:54.741Z,3.22
2022-10-26T00:38:59.541Z,3.20
2022-10-26T00:40:01.473Z,2.92
2022-10-26T00:41:04.885Z,3.28
2022-10-26T00:42:06.796Z,3.53
2022-10-26T00:43:17.606Z,3.30
2022-10-26T00:45:01.196Z,3.33
2022-10-26T00:46:05.122Z,3.55
2022-10-26T00:47:10.418Z,3.20
2022-10-26T00:48:19.096Z,3.25
2022-10-26T00:49:22.430Z,3.40
2022-10-26T00:50:29.041Z,2.92
2022-10-26T00:51:35.537Z,3.00
2022-10-26T00:52:38.255Z,3.20
2022-10-26T00:53:41.356Z,3.10
2022-10-26T00:54:44.150Z,3.40
2022-10-26T00:55:50.177Z,3.33
2022-10-26T00:56:54.935Z,2.92
2022-10-26T00:57:58.157Z,2.90
2022-10-26T00:59:05.187Z,3.22
2022-10-26T01:00:10.744Z,3.30
2022-10-26T01:01:12.790Z,3.55
2022-10-26T01:02:15.836Z,3.15
2022-10-26T01:03:18.268Z,2.85
2022-10-26T01:04:21.458Z,3.17
2022-10-26T01:05:24.134Z,3.20
2022-10-26T01:06:27.534Z,3.20
2022-10-26T01:07:29.578Z,3.38
2022-10-26T01:08:33.421Z,2.55
2022-10-26T01:09:36.719Z,2.70
2022-10-26T01:10:41.276Z,3.03
2022-10-26T01:11:43.191Z,2.50
2022-10-26T01:12:46.769Z,2.72
2022-10-26T01:13:51.326Z,2.63
2022-10-26T01:14:53.425Z,3.25
2022-10-26T01:16:18.297Z,2.80
2022-10-26T01:17:31.313Z,3.00
2022-10-26T01:18:42.868Z,3.15
2022-10-26T01:20:20.009Z,2.22
2022-10-26T01:21:42.165Z,2.92
2022-10-26T01:22:49.606Z,2.97
2022-10-26T01:24:09.056Z,2.75
2022-10-26T01:25:25.274Z,2.70
2022-10-26T01:27:01.377Z,2.80
2022-10-26T01:28:12.260Z,2.95
2022-10-26T01:29:38.381Z,2.75
2022-10-26T01:30:48.209Z,2.45
2022-10-26T01:31:57.006Z,2.63
2022-10-26T01:33:21.381Z,2.60
2022-10-26T01:34:32.306Z,2.90
2022-10-26T01:35:42.980Z,3.10
2022-10-26T01:36:50.792Z,3.10
2022-10-26T01:37:58.433Z,2.65
2022-10-26T01:39:08.973Z,2.53
2022-10-26T01:40:18.135Z,2.80
2022-10-26T01:41:27.622Z,2.95
2022-10-26T01:42:31.173Z,3.20
2022-10-26T01:43:39.859Z,3.10
2022-10-26T01:44:45.506Z,2.40
2022-10-26T01:45:51.445Z,3.03
2022-10-26T01:46:55.841Z,2.53
2022-10-26T01:48:00.682Z,2.97
2022-10-26T01:49:08.069Z,3.00
2022-10-26T01:50:12.490Z,3.10
2022-10-26T01:51:15.340Z,2.60
2022-10-26T01:52:20.237Z,2.67
2022-10-26T01:53:22.170Z,2.67
2022-10-26T01:54:25.428Z,2.70
2022-10-26T01:55:54.926Z,2.47
2022-10-26T01:57:03.121Z,3.08
2022-10-26T01:58:13.326Z,2.58
2022-10-26T01:59:45.757Z,3.15
2022-10-26T02:00:59.285Z,3.00
2022-10-26T02:02:50.330Z,3.30
2022-10-26T02:04:05.781Z,3.08
2022-10-26T02:05:27.241Z,2.50
2022-10-26T02:06:34.897Z,3.03
2022-10-26T02:07:46.120Z,3.10
2022-10-26T02:09:02.041Z,2.67
2022-10-26T02:10:12.665Z,2.85
2022-10-26T02:11:25.613Z,2.53
2022-10-26T02:12:33.860Z,3.10
2022-10-26T02:13:44.245Z,3.15
2022-10-26T02:14:49.988Z,3.25
2022-10-26T02:15:57.778Z,3.25
2022-10-26T02:17:07.601Z,3.40
2022-10-26T02:18:17.181Z,2.90
2022-10-26T02:19:33.501Z,3.45
2022-10-26T02:20:42.101Z,2.65
2022-10-26T02:21:47.158Z,2.97
2022-10-26T02:22:52.485Z,2.50
2022-10-26T02:23:58.142Z,3.40
2022-10-26T02:25:06.178Z,3.03
2022-10-26T02:26:10.748Z,3.72
2022-10-26T02:27:20.213Z,3.17
2022-10-26T02:28:27.422Z,2.90
2022-10-26T02:29:32.673Z,3.65
2022-10-26T02:30:37.370Z,2.75
2022-10-26T02:31:43.660Z,3.05
2022-10-26T02:32:48.398Z,3.13
2022-10-26T02:33:52.925Z,3.70
2022-10-26T02:34:58.871Z,3.05
2022-10-26T02:36:06.435Z,3.63
2022-10-26T02:37:09.246Z,2.92
2022-10-26T02:38:14.105Z,3.50
2022-10-26T02:39:19.173Z,3.90
2022-10-26T02:40:26.475Z,3.90
2022-10-26T02:41:30.351Z,3.50
2022-10-26T02:42:34.004Z,4.00
2022-10-26T02:43:42.677Z,3.60
2022-10-26T02:44:49.647Z,3.15
2022-10-26T02:45:56.473Z,3.53
2022-10-26T02:47:01.311Z,3.72
2022-10-26T02:48:03.529Z,3.00
2022-10-26T02:49:06.731Z,3.45
2022-10-26T02:50:09.651Z,4.38
2022-10-26T02:51:17.655Z,4.22
2022-10-26T02:52:26.874Z,3.85
2022-10-26T02:53:33.982Z,4.10
2022-10-26T02:54:47.325Z,4.03
2022-10-26T02:55:51.492Z,4.68
2022-10-26T02:56:58.798Z,3.30
2022-10-26T02:58:04.408Z,3.15
2022-10-26T02:59:09.061Z,3.00
2022-10-26T03:00:13.971Z,3.35
2022-10-26T03:01:16.988Z,3.42
2022-10-26T03:02:22.206Z,3.15
2022-10-26T03:03:25.381Z,3.22
2022-10-26T03:04:30.998Z,2.50
2022-10-26T03:05:36.098Z,3.67
2022-10-26T03:06:37.997Z,3.15
2022-10-26T03:07:40.941Z,3.33
2022-10-26T03:08:42.867Z,2.90
2022-10-26T03:09:45.801Z,2.95
2022-10-26T03:10:47.743Z,2.90
2022-10-26T03:11:50.681Z,3.08
2022-10-26T03:12:53.333Z,4.18
2022-10-26T03:13:56.220Z,3.35
2022-10-26T03:14:58.131Z,3.10
2022-10-26T03:16:01.038Z,3.38
2022-10-26T03:17:03.034Z,3.45
2022-10-26T03:18:08.173Z,3.60
2022-10-26T03:19:10.105Z,3.40
2022-10-26T03:20:13.520Z,3.25
2022-10-26T03:21:15.442Z,3.50
2022-10-26T03:22:18.358Z,3.33
2022-10-26T03:23:20.534Z,3.20
2022-10-26T03:24:23.486Z,3.60
2022-10-26T03:25:25.485Z,3.75
2022-10-26T03:26:28.423Z,3.65
2022-10-26T03:27:30.371Z,3.63
2022-10-26T03:28:33.328Z,3.58
2022-10-26T03:29:35.255Z,3.22
2022-10-26T03:30:38.168Z,3.25
2022-10-26T03:31:40.154Z,3.35
2022-10-26T03:32:43.034Z,3.72
2022-10-26T03:33:46.299Z,3.88
2022-10-26T03:34:49.210Z,3.22
2022-10-26T03:35:56.620Z,4.05
2022-10-26T03:36:59.885Z,4.63
2022-10-26T03:38:01.820Z,3.97
2022-10-26T03:39:04.822Z,3.70
2022-10-26T03:40:08.146Z,3.30
2022-10-26T03:41:11.052Z,3.95
2022-10-26T03:42:13.010Z,3.45
2022-10-26T03:43:15.924Z,4.50
2022-10-26T03:44:17.886Z,3.90
2022-10-26T03:45:20.829Z,3.67
2022-10-26T03:46:22.806Z,3.10
2022-10-26T03:47:25.727Z,3.53
2022-10-26T03:48:27.670Z,3.83
2022-10-26T03:49:31.971Z,3.80
2022-10-26T03:50:33.905Z,3.78
2022-10-26T03:51:36.817Z,3.53
2022-10-26T03:52:38.761Z,3.50
2022-10-26T03:53:41.669Z,3.60
2022-10-26T03:54:43.637Z,3.80
2022-10-26T03:55:46.822Z,4.00
2022-10-26T03:56:52.644Z,3.97
2022-10-26T03:57:57.974Z,3.05
2022-10-26T03:59:00.193Z,4.00
2022-10-26T04:00:03.324Z,3.70
2022-10-26T04:01:05.298Z,3.10
2022-10-26T04:02:08.306Z,3.45
2022-10-26T04:03:10.225Z,4.13
2022-10-26T04:04:13.231Z,3.85
2022-10-26T04:05:16.839Z,3.90
2022-10-26T04:06:19.806Z,3.78
2022-10-26T04:07:21.746Z,3.63
2022-10-26T04:08:24.719Z,3.67
2022-10-26T04:09:26.661Z,3.60
2022-10-26T04:10:29.980Z,4.00
2022-10-26T04:11:31.905Z,4.03
2022-10-26T04:12:38.241Z,3.70
2022-10-26T04:13:40.189Z,4.25
2022-10-26T04:14:43.117Z,4.57
2022-10-26T04:15:45.033Z,3.95
2022-10-26T04:16:47.949Z,4.10
2022-10-26T04:17:56.933Z,3.90
2022-10-26T04:18:59.841Z,3.80
2022-10-26T04:20:01.768Z,4.47
2022-10-26T04:21:06.486Z,4.45
2022-10-26T04:22:08.402Z,3.95
2022-10-26T04:23:13.932Z,3.80
2022-10-26T04:24:16.194Z,3.83
2022-10-26T04:25:19.112Z,3.50
2022-10-26T04:26:21.060Z,3.88
2022-10-26T04:27:24.201Z,4.40
2022-10-26T04:28:26.290Z,4.40
2022-10-26T04:29:29.181Z,3.90
2022-10-26T04:30:31.778Z,4.40
2022-10-26T04:31:34.826Z,3.85
2022-10-26T04:32:36.791Z,4.47
2022-10-26T04:33:39.700Z,4.57
2022-10-26T04:34:41.648Z,3.72
2022-10-26T04:35:45.897Z,3.95
2022-10-26T04:36:49.186Z,4.18
2022-10-26T04:37:52.170Z,4.68
2022-10-26T04:38:54.113Z,4.15
2022-10-26T04:39:57.051Z,4.00
2022-10-26T04:41:00.063Z,4.57
2022-10-26T04:42:02.059Z,4.45
2022-10-26T04:43:05.014Z,4.57
2022-10-26T04:44:06.925Z,4.10
2022-10-26T04:45:10.981Z,4.45
2022-10-26T04:46:16.651Z,4.80
2022-10-26T04:47:19.890Z,4.30
2022-10-26T04:48:21.847Z,4.10
2022-10-26T04:49:24.850Z,4.30
2022-10-26T04:50:28.470Z,4.40
2022-10-26T04:51:31.560Z,4.82
2022-10-26T04:52:35.061Z,4.57
2022-10-26T04:53:37.968Z,4.00
2022-10-26T04:54:39.906Z,3.85
2022-10-26T04:55:42.831Z,4.75
2022-10-26T04:57:55.920Z,4.47
2022-10-26T04:59:01.539Z,4.20
2022-10-26T05:00:05.784Z,4.65
2022-10-26T05:01:08.777Z,4.30
2022-10-26T05:02:10.839Z,5.15
2022-10-26T05:03:13.946Z,4.22
2022-10-26T05:04:16.857Z,3.95
2022-10-26T05:05:18.814Z,3.90
2022-10-26T05:06:22.003Z,4.25
2022-10-26T05:07:23.995Z,4.10
2022-10-26T05:08:29.084Z,4.32
2022-10-26T05:09:31.029Z,4.80
2022-10-26T05:10:34.569Z,4.38
2022-10-26T05:11:36.489Z,4.30
2022-10-26T05:12:39.432Z,4.95
2022-10-26T05:13:41.420Z,4.30
2022-10-26T05:14:44.333Z,4.88
2022-10-26T05:15:46.344Z,4.18
2022-10-26T05:16:49.254Z,4.68
2022-10-26T05:17:56.332Z,5.05
2022-10-26T05:18:59.257Z,4.57
2022-10-26T05:20:05.762Z,4.60
2022-10-26T05:21:08.750Z,4.47
2022-10-26T05:22:10.806Z,4.70
2022-10-26T05:23:18.308Z,4.70
2022-10-26T05:24:22.608Z,4.30
2022-10-26T05:25:24.955Z,4.88
2022-10-26T05:26:28.223Z,4.53
2022-10-26T05:27:30.158Z,4.18
2022-10-26T05:28:33.105Z,5.13
2022-10-26T05:29:35.048Z,4.70
2022-10-26T05:30:38.723Z,4.75
2022-10-26T05:31:44.559Z,4.63
2022-10-26T05:32:54.274Z,4.30
2022-10-26T05:33:57.466Z,4.88
2022-10-26T05:34:59.358Z,4.75
2022-10-26T05:36:02.258Z,3.90
2022-10-26T05:37:05.163Z,4.18
2022-10-26T05:38:08.615Z,4.47
2022-10-26T05:39:11.522Z,5.03
2022-10-26T05:40:15.542Z,5.15
2022-10-26T05:41:18.520Z,3.40
2022-10-26T05:42:20.678Z,4.97
2022-10-26T05:43:25.005Z,5.35
2022-10-26T05:44:27.417Z,5.38
2022-10-26T05:45:30.632Z,4.45
2022-10-26T05:46:32.541Z,5.55
2022-10-26T05:47:39.342Z,4.60
2022-10-26T05:48:42.243Z,4.60
2022-10-26T05:49:44.353Z,4.72
2022-10-26T05:50:47.694Z,4.88
2022-10-26T05:51:50.658Z,5.72
2022-10-26T05:52:52.591Z,4.80
2022-10-26T05:53:55.534Z,4.85
2022-10-26T05:54:57.502Z,4.30
2022-10-26T05:56:04.899Z,4.90
2022-10-26T05:57:12.282Z,4.32
2022-10-26T05:58:16.563Z,4.03
2022-10-26T05:59:19.031Z,4.18
2022-10-26T06:00:23.875Z,4.03
2022-10-26T06:01:34.342Z,3.88
2022-10-26T06:02:45.104Z,3.72
2022-10-26T06:04:03.126Z,3.90
2022-10-26T06:05:07.133Z,3.90
2022-10-26T06:06:12.772Z,4.43
2022-10-26T06:07:17.925Z,3.55
2022-10-26T06:08:20.496Z,4.10
2022-10-26T06:09:24.337Z,4.18
2022-10-26T06:10:28.439Z,4.65
2022-10-26T06:11:33.514Z,4.28
2022-10-26T06:12:36.117Z,4.35
2022-10-26T06:13:39.580Z,5.30
2022-10-26T06:14:42.961Z,4.88
2022-10-26T06:16:01.307Z,4.40
2022-10-26T06:17:19.241Z,4.25
2022-10-26T06:18:30.941Z,4.63
2022-10-26T06:19:47.422Z,4.32
2022-10-26T06:21:03.796Z,3.95
2022-10-26T06:22:18.836Z,4.15
2022-10-26T06:23:42.889Z,4.68
2022-10-26T06:24:52.284Z,4.35
2022-10-26T06:26:03.477Z,5.32
2022-10-26T06:27:19.730Z,4.38
2022-10-26T06:29:51.733Z,4.75
2022-10-26T06:30:53.818Z,3.83
2022-10-26T06:31:56.726Z,4.63
2022-10-26T06:33:11.695Z,4.90
2022-10-26T06:34:29.501Z,5.45
2022-10-26T06:35:43.136Z,4.65
2022-10-26T06:36:48.163Z,4.75
2022-10-26T06:37:51.178Z,4.32
2022-10-26T06:38:57.351Z,4.25
2022-10-26T06:40:00.515Z,4.20
2022-10-26T06:41:04.143Z,4.07
2022-10-26T06:42:10.294Z,4.53
2022-10-26T06:43:25.029Z,4.70
2022-10-26T06:44:27.450Z,4.57
2022-10-26T06:45:30.989Z,4.55
2022-10-26T06:46:39.375Z,4.63
2022-10-26T06:47:48.976Z,4.90
2022-10-26T06:48:58.477Z,5.25
2022-10-26T06:50:10.548Z,5.38
2022-10-26T06:51:15.673Z,4.93
2022-10-26T06:52:24.390Z,4.30
2022-10-26T06:53:32.111Z,5.35
2022-10-26T06:54:47.805Z,4.50
2022-10-26T06:55:51.295Z,5.75
2022-10-26T06:56:54.760Z,4.50
2022-10-26T06:57:58.349Z,5.47
2022-10-26T06:59:09.538Z,9.93
2022-10-26T07:00:19.754Z,8.13
2022-10-26T07:01:22.908Z,7.65
2022-10-26T07:02:25.089Z,7.43
2022-10-26T07:03:28.135Z,5.88
2022-10-26T07:04:30.274Z,7.10
2022-10-26T07:05:33.225Z,15.00
2022-10-26T07:06:36.912Z,11.30
2022-10-26T07:07:44.661Z,11.45
2022-10-26T07:08:46.581Z,9.20
2022-10-26T07:09:50.008Z,6.78
2022-10-26T07:10:52.021Z,10.63
2022-10-26T07:11:54.965Z,8.13
2022-10-26T07:12:59.386Z,6.65
2022-10-26T07:14:02.275Z,7.65
2022-10-26T07:15:05.769Z,8.13
2022-10-26T07:16:09.002Z,8.90
2022-10-26T07:17:11.543Z,9.02
2022-10-26T07:18:14.813Z,8.90
2022-10-26T07:19:17.709Z,7.70
2022-10-26T07:20:22.290Z,6.53
2022-10-26T07:21:24.219Z,6.25
2022-10-26T07:22:27.140Z,5.38
2022-10-26T07:24:36.881Z,5.70
2022-10-26T07:25:40.556Z,5.28
2022-10-26T07:26:43.875Z,5.93
2022-10-26T07:27:46.931Z,5.65
2022-10-26T07:28:51.516Z,4.35
2022-10-26T07:29:53.442Z,4.82
2022-10-26T07:30:56.606Z,5.70
2022-10-26T07:31:59.498Z,5.20
2022-10-26T07:33:01.739Z,5.28
2022-10-26T07:34:04.776Z,5.82
2022-10-26T07:35:07.275Z,7.47
2022-10-26T07:36:10.995Z,5.80
2022-10-26T07:37:13.001Z,6.07
2022-10-26T07:38:15.976Z,5.50
2022-10-26T07:39:17.910Z,5.28
2022-10-26T07:41:27.722Z,5.50
2022-10-26T07:42:30.657Z,6.13
2022-10-26T07:43:33.650Z,5.20
2022-10-26T07:44:36.914Z,5.25
2022-10-26T07:45:40.541Z,6.40
2022-10-26T07:46:42.478Z,5.50
2022-10-26T07:47:46.153Z,4.57
2022-10-26T07:48:48.069Z,5.95
2022-10-26T07:49:50.974Z,4.70
2022-10-26T07:50:52.897Z,5.90
2022-10-26T07:51:55.833Z,5.43
2022-10-26T07:52:58.739Z,5.40
2022-10-26T07:54:01.644Z,5.40
2022-10-26T07:55:03.688Z,6.18
2022-10-26T07:56:07.590Z,5.18
2022-10-26T07:57:09.527Z,7.10
2022-10-26T07:58:12.570Z,6.25
2022-10-26T07:59:14.567Z,5.72
2022-10-26T08:00:18.980Z,5.80
2022-10-26T08:01:21.688Z,7.63
2022-10-26T08:02:25.626Z,7.97
2022-10-26T08:03:27.551Z,6.93
2022-10-26T08:04:30.473Z,9.18
2022-10-26T08:05:33.390Z,8.90
2022-10-26T08:06:35.357Z,8.60
2022-10-26T08:07:43.494Z,7.45
2022-10-26T08:08:47.634Z,9.45
2022-10-26T08:09:50.768Z,8.95
2022-10-26T08:10:52.735Z,8.80
2022-10-26T08:11:55.750Z,8.15
2022-10-26T08:12:57.655Z,8.73
2022-10-26T08:14:00.586Z,8.68
2022-10-26T08:15:02.526Z,9.02
2022-10-26T08:16:07.881Z,7.40
2022-10-26T08:17:10.115Z,8.20
2022-10-26T08:18:13.026Z,7.35
2022-10-26T08:19:14.973Z,7.57
2022-10-26T08:20:17.989Z,8.38
2022-10-26T08:21:25.951Z,8.05
2022-10-26T08:22:33.302Z,7.43
2022-10-26T08:23:35.217Z,8.38
2022-10-26T08:24:38.140Z,8.70
2022-10-26T08:25:41.081Z,8.93
2022-10-26T08:26:43.457Z,8.98
2022-10-26T08:27:46.390Z,10.15
2022-10-26T08:28:50.688Z,7.45
2022-10-26T08:29:53.608Z,7.55
2022-10-26T08:30:57.786Z,7.18
2022-10-26T08:32:06.063Z,7.25
2022-10-26T08:33:12.122Z,8.35
2022-10-26T08:34:15.401Z,7.72
2022-10-26T08:35:18.477Z,9.15
2022-10-26T08:36:25.725Z,8.00
2022-10-26T08:37:28.650Z,7.47
2022-10-26T08:38:34.014Z,7.53
2022-10-26T08:39:36.929Z,8.15
2022-10-26T08:40:41.448Z,6.90
2022-10-26T08:41:45.776Z,6.95
2022-10-26T08:42:52.708Z,6.53
2022-10-26T08:43:58.971Z,8.05
2022-10-26T08:45:06.841Z,7.63
2022-10-26T08:46:13.727Z,6.00
2022-10-26T08:47:20.896Z,6.75
2022-10-26T08:48:30.154Z,6.78
2022-10-26T08:49:41.244Z,7.30
2022-10-26T08:50:49.599Z,7.95
2022-10-26T08:51:55.910Z,7.18
2022-10-26T08:53:04.717Z,6.22
2022-10-26T08:54:14.596Z,7.00
2022-10-26T08:55:20.485Z,6.85
2022-10-26T08:56:26.567Z,6.95
2022-10-26T08:57:34.957Z,6.35
2022-10-26T08:58:40.161Z,7.40
2022-10-26T08:59:48.884Z,7.72
2022-10-26T09:00:53.820Z,7.28
2022-10-26T09:01:56.203Z,7.20
2022-10-26T09:02:59.302Z,7.40
2022-10-26T09:04:03.968Z,7.35
2022-10-26T09:05:17.422Z,7.13
2022-10-26T09:06:31.149Z,6.68
2022-10-26T09:07:47.589Z,7.15
2022-10-26T09:08:59.417Z,7.45
2022-10-26T09:10:17.360Z,7.63
2022-10-26T09:11:34.856Z,6.30
2022-10-26T09:12:45.934Z,6.63
2022-10-26T09:14:00.487Z,8.18
2022-10-26T09:15:14.747Z,6.60
2022-10-26T09:16:28.728Z,6.60
2022-10-26T09:17:43.818Z,8.60
2022-10-26T09:18:55.844Z,6.43
2022-10-26T09:20:15.321Z,7.40
2022-10-26T09:21:31.850Z,7.05
2022-10-26T09:22:41.576Z,7.22
2022-10-26T09:23:58.290Z,7.60
2022-10-26T09:25:09.811Z,6.22
2022-10-26T09:26:15.833Z,7.25
2022-10-26T09:27:24.253Z,7.97
2022-10-26T09:28:28.605Z,7.25
2022-10-26T09:29:38.006Z,7.63
2022-10-26T09:30:40.042Z,7.07
2022-10-26T09:31:45.203Z,6.60
2022-10-26T09:32:49.530Z,7.07
2022-10-26T09:33:54.041Z,8.88
2022-10-26T09:35:02.802Z,6.40
2022-10-26T09:36:13.155Z,6.57
2022-10-26T09:37:24.095Z,6.30
2022-10-26T09:38:29.970Z,8.23
2022-10-26T09:39:40.107Z,8.00
2022-10-26T09:40:49.685Z,6.03
2022-10-26T09:41:57.444Z,5.75
2022-10-26T09:43:05.578Z,6.55
2022-10-26T09:44:17.566Z,6.65
2022-10-26T09:45:26.650Z,7.03
2022-10-26T09:46:31.949Z,5.45
2022-10-26T09:47:38.117Z,6.75
2022-10-26T09:48:44.194Z,7.65
2022-10-26T09:49:49.540Z,7.00
2022-10-26T09:50:52.864Z,7.45
2022-10-26T09:51:56.405Z,7.10
2022-10-26T09:52:59.306Z,8.13
2022-10-26T09:54:03.175Z,8.23
2022-10-26T09:55:05.937Z,7.50
2022-10-26T09:56:11.645Z,7.45
2022-10-26T09:57:16.146Z,7.00
2022-10-26T09:58:23.003Z,6.97
2022-10-26T09:59:26.301Z,6.90
2022-10-26T10:00:30.606Z,5.97
2022-10-26T10:01:38.136Z,6.25
2022-10-26T10:02:45.781Z,5.47
2022-10-26T10:03:47.977Z,7.20
2022-10-26T10:04:50.870Z,6.40
2022-10-26T10:05:54.276Z,6.53
2022-10-26T10:07:14.650Z,6.03
2022-10-26T10:08:20.685Z,6.53
2022-10-26T10:09:24.996Z,5.70
2022-10-26T10:10:26.920Z,6.65
2022-10-26T10:11:39.197Z,5.65
2022-10-26T10:12:41.282Z,8.82
2022-10-26T10:13:45.803Z,7.28
2022-10-26T10:14:57.787Z,6.25
2022-10-26T10:16:07.173Z,5.68
2022-10-26T10:17:22.138Z,4.85
2022-10-26T10:18:24.434Z,4.47
2022-10-26T10:19:29.485Z,5.03
2022-10-26T10:20:32.975Z,5.20
2022-10-26T10:21:37.862Z,5.18
2022-10-26T10:22:58.587Z,7.65
2022-10-26T10:24:01.515Z,6.50
2022-10-26T10:25:23.560Z,7.03
2022-10-26T10:26:26.518Z,6.40
2022-10-26T10:27:30.006Z,6.05
2022-10-26T10:28:34.161Z,5.88
2022-10-26T10:29:43.676Z,5.68
2022-10-26T10:30:52.969Z,5.10
2022-10-26T10:32:00.852Z,4.90
2022-10-26T10:33:07.996Z,5.53
2022-10-26T10:34:17.836Z,5.20
2022-10-26T10:35:24.421Z,5.93
2022-10-26T10:36:30.350Z,5.50
2022-10-26T10:37:36.787Z,6.35
2022-10-26T10:38:43.860Z,6.75
2022-10-26T10:39:47.005Z,5.85
2022-10-26T10:40:54.007Z,5.03
2022-10-26T10:41:58.166Z,4.70
2022-10-26T10:43:12.612Z,4.60
2022-10-26T10:44:22.237Z,4.25
2022-10-26T10:45:26.090Z,4.20
2022-10-26T10:46:29.686Z,4.88
2022-10-26T10:47:33.215Z,3.88
2022-10-26T10:48:39.345Z,4.50
2022-10-26T10:49:44.342Z,4.70
2022-10-26T10:50:56.818Z,4.32
2022-10-26T10:51:59.176Z,4.05
2022-10-26T10:53:18.305Z,4.60
2022-10-26T10:54:28.732Z,3.80
2022-10-26T10:55:31.661Z,3.83
2022-10-26T10:56:37.781Z,4.13
2022-10-26T10:57:55.423Z,4.35
2022-10-26T10:59:36.882Z,4.55
2022-10-26T11:00:42.269Z,4.38
2022-10-26T11:01:51.944Z,5.60
2022-10-26T11:03:37.615Z,4.47
2022-10-26T11:04:54.009Z,4.75
2022-10-26T11:06:05.599Z,3.75
2022-10-26T11:07:10.946Z,3.63
2022-10-26T11:08:19.762Z,3.35
2022-10-26T11:09:28.785Z,3.80
2022-10-26T11:10:36.041Z,3.65
2022-10-26T11:11:45.697Z,5.10
2022-10-26T11:12:55.194Z,5.25
2022-10-26T11:14:04.505Z,4.32
2022-10-26T11:15:12.757Z,3.72
2022-10-26T11:16:22.015Z,3.70
2022-10-26T11:17:29.028Z,4.30
2022-10-26T11:18:36.078Z,3.45
2022-10-26T11:19:44.301Z,3.47
2022-10-26T11:20:51.201Z,3.80
2022-10-26T11:21:55.736Z,3.97
2022-10-26T11:24:21.702Z,3.15
2022-10-26T11:25:30.105Z,2.55
2022-10-26T11:26:41.312Z,3.10
2022-10-26T11:27:50.658Z,3.05
2022-10-26T11:29:00.337Z,3.78
2022-10-26T11:30:07.035Z,2.72
2022-10-26T11:31:13.881Z,3.08
2022-10-26T11:32:21.415Z,2.95
2022-10-26T11:33:27.132Z,3.03
2022-10-26T11:34:35.538Z,3.03
2022-10-26T11:35:45.110Z,2.70
2022-10-26T11:36:54.771Z,2.35
2022-10-26T11:38:03.985Z,2.78
2022-10-26T11:39:14.812Z,2.63
2022-10-26T11:40:34.981Z,2.35
2022-10-26T11:41:41.448Z,2.70
2022-10-26T11:42:49.987Z,2.47
2022-10-26T11:43:57.882Z,2.85
2022-10-26T11:45:05.544Z,2.55
2022-10-26T11:46:16.578Z,2.80
2022-10-26T11:47:30.508Z,2.80
2022-10-26T11:48:40.644Z,2.85
2022-10-26T11:49:48.809Z,3.20
2022-10-26T11:50:54.292Z,2.70
2022-10-26T11:52:02.613Z,3.30
2022-10-26T11:53:10.274Z,3.00
2022-10-26T11:54:17.705Z,2.80
2022-10-26T11:55:23.411Z,2.75
2022-10-26T11:56:31.935Z,3.38
2022-10-26T11:57:36.492Z,3.53
2022-10-26T11:58:39.829Z,2.63
2022-10-26T11:59:47.992Z,2.50
2022-10-26T12:00:54.485Z,2.90
2022-10-26T12:02:02.508Z,2.90
2022-10-26T12:03:11.358Z,2.60
2022-10-26T12:04:15.386Z,3.85
2022-10-26T12:05:21.950Z,2.50
2022-10-26T12:06:29.267Z,2.78
2022-10-26T12:07:33.847Z,2.90
2022-10-26T12:08:39.503Z,3.05
2022-10-26T12:09:44.202Z,2.65
2022-10-26T12:10:54.064Z,2.88
2022-10-26T12:12:06.078Z,2.60
2022-10-26T12:13:18.768Z,2.63
2022-10-26T12:14:28.135Z,2.83
2022-10-26T12:16:01.635Z,2.00
2022-10-26T12:17:10.164Z,3.00
2022-10-26T12:18:20.332Z,2.95
2022-10-26T12:19:40.466Z,2.88
2022-10-26T12:21:05.489Z,2.40
2022-10-26T12:22:12.490Z,2.35
2022-10-26T12:23:23.148Z,3.05
2022-10-26T12:24:38.791Z,2.75
2022-10-26T12:25:40.769Z,3.05
2022-10-26T12:26:52.944Z,3.40
2022-10-26T12:27:58.275Z,2.78
2022-10-26T12:29:31.928Z,2.78
2022-10-26T12:30:37.206Z,2.13
2022-10-26T12:31:43.362Z,2.88
2022-10-26T12:32:55.778Z,2.17
2022-10-26T12:33:57.967Z,2.60
2022-10-26T12:35:03.887Z,2.75
2022-10-26T12:36:48.136Z,3.15
2022-10-26T12:37:50.329Z,2.90
2022-10-26T12:39:00.110Z,3.00
2022-10-26T12:40:39.613Z,3.00
2022-10-26T12:41:55.796Z,2.20
2022-10-26T12:43:36.818Z,1.95
2022-10-26T12:44:42.093Z,2.38
2022-10-26T12:45:45.954Z,1.95
2022-10-26T12:46:48.899Z,2.75
2022-10-26T12:48:34.816Z,2.55
2022-10-26T12:49:59.808Z,2.15
2022-10-26T12:51:41.263Z,2.53
2022-10-26T12:52:55.570Z,2.00
2022-10-26T12:54:15.754Z,1.98
2022-10-26T12:55:49.624Z,2.53
2022-10-26T12:56:55.700Z,2.88
2022-10-26T12:58:15.634Z,2.20
2022-10-26T12:59:26.718Z,2.13
2022-10-26T13:00:28.920Z,2.33
2022-10-26T13:01:51.868Z,2.75
2022-10-26T13:03:14.722Z,2.50
2022-10-26T13:04:52.882Z,2.60
2022-10-26T13:06:23.150Z,2.58
2022-10-26T13:07:27.014Z,2.50
2022-10-26T13:08:39.973Z,2.35
2022-10-26T13:09:46.182Z,2.50
2022-10-26T13:11:04.506Z,3.03
2022-10-26T13:12:07.674Z,3.40
2022-10-26T13:13:24.507Z,2.60
2022-10-26T13:14:31.809Z,2.10
2022-10-26T13:15:38.453Z,2.80
2022-10-26T13:16:46.011Z,3.03
2022-10-26T13:17:56.822Z,3.00
2022-10-26T13:19:01.449Z,3.10
2022-10-26T13:20:06.703Z,3.17
2022-10-26T13:21:11.975Z,2.30
2022-10-26T13:22:17.145Z,2.85
2022-10-26T13:23:26.639Z,2.33
2022-10-26T13:24:32.198Z,2.88
2022-10-26T13:25:35.166Z,4.15
2022-10-26T13:27:29.426Z,5.45
2022-10-26T13:28:43.914Z,6.25
2022-10-26T13:30:28.631Z,4.60
2022-10-26T13:31:59.529Z,4.15
2022-10-26T13:33:02.874Z,2.90
2022-10-26T13:34:11.727Z,2.95
2022-10-26T13:35:15.026Z,2.95
2022-10-26T13:36:28.566Z,2.70
2022-10-26T13:37:33.618Z,2.55
2022-10-26T13:38:38.503Z,2.60
2022-10-26T13:39:43.747Z,2.70
2022-10-26T13:40:47.103Z,3.33
2022-10-26T13:41:53.299Z,2.92
2022-10-26T13:42:57.086Z,3.65
2022-10-26T13:44:06.481Z,3.42
2022-10-26T13:45:14.455Z,3.50
2022-10-26T13:46:25.821Z,3.28
2022-10-26T13:47:33.657Z,2.58
2022-10-26T13:48:40.992Z,3.35
2022-10-26T13:49:47.513Z,2.80
2022-10-26T13:50:53.468Z,3.10
2022-10-26T13:51:57.434Z,3.92
2022-10-26T13:53:06.776Z,3.50
2022-10-26T13:54:20.889Z,3.20
2022-10-26T13:55:26.797Z,3.13
2022-10-26T13:56:34.737Z,2.65
2022-10-26T13:57:41.444Z,3.03
2022-10-26T13:58:48.705Z,3.05
2022-10-26T13:59:53.754Z,2.65
2022-10-26T14:01:13.030Z,3.20
2022-10-26T14:02:19.161Z,3.70
2022-10-26T14:03:21.437Z,3.47
2022-10-26T14:04:28.818Z,3.20
2022-10-26T14:05:31.610Z,3.25
2022-10-26T14:06:37.977Z,3.20
2022-10-26T14:07:44.488Z,3.45
2022-10-26T14:08:49.399Z,3.60
2022-10-26T14:09:53.488Z,3.55
2022-10-26T14:10:59.102Z,3.60
2022-10-26T14:12:02.073Z,3.78
2022-10-26T14:13:09.012Z,3.33
2022-10-26T14:14:17.950Z,3.63
2022-10-26T14:15:26.682Z,4.00
2022-10-26T14:16:31.376Z,4.50
2022-10-26T14:17:34.864Z,3.45
2022-10-26T14:18:38.040Z,4.63
2022-10-26T14:19:42.013Z,4.00
2022-10-26T14:20:50.009Z,4.43
2022-10-26T14:21:54.191Z,4.95
2022-10-26T14:22:57.094Z,5.10
2022-10-26T14:24:04.153Z,5.15
2022-10-26T14:25:26.603Z,4.13
2022-10-26T14:26:41.545Z,3.60
2022-10-26T14:27:44.474Z,3.80
2022-10-26T14:28:50.646Z,3.88
2022-10-26T14:30:22.084Z,2.95
2022-10-26T14:31:25.718Z,3.80
2022-10-26T14:32:30.209Z,3.40
2022-10-26T14:33:32.183Z,3.38
2022-10-26T14:34:35.134Z,3.53
2022-10-26T14:35:42.028Z,4.10
2022-10-26T14:36:49.726Z,3.90
2022-10-26T14:37:56.585Z,3.63
2022-10-26T14:39:02.324Z,3.30
2022-10-26T14:40:07.966Z,3.63
2022-10-26T14:41:10.831Z,3.30
2022-10-26T14:42:28.863Z,3.22
2022-10-26T14:43:32.958Z,3.67
2022-10-26T14:44:37.545Z,3.45
2022-10-26T14:45:48.486Z,3.42
2022-10-26T14:46:54.436Z,2.90
2022-10-26T14:47:56.772Z,2.97
2022-10-26T14:49:02.137Z,3.30
2022-10-26T14:50:04.703Z,3.30
2022-10-26T14:51:12.764Z,3.22
2022-10-26T14:52:21.851Z,2.70
2022-10-26T14:53:28.070Z,3.00
2022-10-26T14:54:32.198Z,2.97
2022-10-26T14:55:45.556Z,2.95
2022-10-26T14:56:48.662Z,3.17
2022-10-26T14:57:53.845Z,3.20
2022-10-26T14:58:58.501Z,3.15